Time;durP1;ratioP1;P1;durP2;ratioP2;P2;SDS_P1;SDS_P2;PMS_P1;PMS_P2;Temp;Humidity;BMP_temperature;BMP_pressure;BME280_temperature;BME280_humidity;BME280_pressure;Samples;Min_cycle;Max_cycle;Signal;HPM_P1;HPM_P2
2024/01/03 00:01:17;;;;;;;5.47;4.47;;;;;;;-142.06;100.00;64312.41;5049985;28;20206;-78
2024/01/03 00:03:44;;;;;;;5.00;4.17;;;;;;;-142.06;100.00;64312.41;5051612;28;20191;-78
2024/01/03 00:06:11;;;;;;;4.53;4.13;;;;;;;-142.06;100.00;64312.41;5040484;28;20257;-77
2024/01/03 00:08:38;;;;;;;4.93;4.43;;;;;;;-142.06;100.00;64312.41;5046217;28;20662;-77
2024/01/03 00:11:05;;;;;;;4.40;3.90;;;;;;;-142.06;100.00;64312.41;5045112;28;20262;-77
2024/01/03 00:13:38;;;;;;;4.47;4.03;;;;;;;-142.06;100.00;64312.41;5050298;28;20213;-78
2024/01/03 00:16:06;;;;;;;4.90;4.13;;;;;;;-142.06;100.00;64312.41;5043615;28;20190;-79
2024/01/03 00:18:37;;;;;;;5.67;4.13;;;;;;;-142.06;100.00;64312.41;5053500;28;20200;-76
2024/01/03 00:21:09;;;;;;;4.33;3.90;;;;;;;-142.06;100.00;64312.41;5051906;28;20202;-77
2024/01/03 00:23:46;;;;;;;4.10;3.70;;;;;;;-142.06;100.00;64312.41;5049592;28;20204;-77
2024/01/03 00:26:13;;;;;;;4.43;3.70;;;;;;;-142.06;100.00;64312.41;5049369;28;20239;-78
2024/01/03 00:28:42;;;;;;;4.37;3.97;;;;;;;-142.06;100.00;64312.41;5049430;28;20239;-77
2024/01/03 00:31:09;;;;;;;3.93;3.53;;;;;;;-142.06;100.00;64312.41;5050462;28;20198;-76
2024/01/03 00:33:40;;;;;;;4.77;3.90;;;;;;;-142.06;100.00;64312.41;5033014;28;20248;-78
2024/01/03 00:36:08;;;;;;;3.97;3.20;;;;;;;-142.06;100.00;64312.41;5050255;28;20735;-77
2024/01/03 00:38:41;;;;;;;4.00;3.60;;;;;;;-142.06;100.00;64312.41;5032736;28;20208;-77
2024/01/03 00:41:09;;;;;;;3.93;3.33;;;;;;;-142.06;100.00;64312.41;5047380;28;20197;-76
2024/01/03 00:43:37;;;;;;;4.10;3.70;;;;;;;-142.06;100.00;64312.41;5049319;28;20193;-79
2024/01/03 00:46:04;;;;;;;4.73;4.07;;;;;;;-142.06;100.00;64312.41;5051627;28;20275;-78
2024/01/03 00:48:32;;;;;;;4.30;3.73;;;;;;;-142.06;100.00;64312.41;5048064;28;20190;-78
2024/01/03 00:50:59;;;;;;;4.67;3.83;;;;;;;-142.06;100.00;64312.41;5053720;28;20220;-80
2024/01/03 00:53:26;;;;;;;4.83;3.93;;;;;;;-142.06;100.00;64312.41;5047159;28;20215;-80
2024/01/03 00:55:53;;;;;;;5.13;4.23;;;;;;;-142.06;100.00;64312.41;5047862;28;20189;-81
2024/01/03 00:58:20;;;;;;;4.47;4.00;;;;;;;-142.06;100.00;64312.41;5053293;28;20201;-79
2024/01/03 01:00:47;;;;;;;4.30;3.87;;;;;;;-142.06;100.00;64312.41;5053096;28;20205;-81
2024/01/03 01:03:14;;;;;;;4.50;4.10;;;;;;;-142.06;100.00;64312.41;5052177;28;20196;-81
2024/01/03 01:05:41;;;;;;;4.90;4.40;;;;;;;-142.06;100.00;64312.41;5052749;28;20194;-78
2024/01/03 01:08:08;;;;;;;4.40;3.73;;;;;;;-142.06;100.00;64312.41;5052796;28;20194;-83
2024/01/03 01:10:35;;;;;;;5.17;4.10;;;;;;;-142.06;100.00;64312.41;5054285;28;20208;-80
2024/01/03 01:13:02;;;;;;;4.23;3.83;;;;;;;-142.06;100.00;64312.41;5055816;28;20213;-80
2024/01/03 01:15:29;;;;;;;4.67;3.93;;;;;;;-142.06;100.00;64312.41;5055004;28;20193;-79
2024/01/03 01:17:56;;;;;;;4.53;3.70;;;;;;;-142.06;100.00;64312.41;5035569;28;20198;-79
2024/01/03 01:20:23;;;;;;;3.97;3.57;;;;;;;-142.06;100.00;64312.41;5020188;28;20267;-79
2024/01/03 01:22:50;;;;;;;4.23;3.83;;;;;;;-142.06;100.00;64312.41;5055691;28;20193;-79
2024/01/03 01:25:17;;;;;;;4.77;3.60;;;;;;;-142.06;100.00;64312.41;5052994;28;20441;-79
2024/01/03 01:27:44;;;;;;;4.57;4.07;;;;;;;-142.06;100.00;64312.41;5052696;28;20204;-81
2024/01/03 01:30:11;;;;;;;4.30;3.70;;;;;;;-142.06;100.00;64312.41;5037599;28;20202;-79
2024/01/03 01:32:38;;;;;;;4.30;3.90;;;;;;;-142.06;100.00;64312.41;5038314;28;20249;-79
2024/01/03 01:35:05;;;;;;;4.00;3.60;;;;;;;-142.06;100.00;64312.41;5037784;28;20225;-81
2024/01/03 01:37:32;;;;;;;4.33;3.67;;;;;;;-142.06;100.00;64312.41;5055263;28;20190;-80
2024/01/03 01:39:59;;;;;;;3.60;3.30;;;;;;;-142.06;100.00;64312.41;5053766;28;20671;-80
2024/01/03 01:42:28;;;;;;;3.63;3.33;;;;;;;-142.06;100.00;64312.41;5054207;28;20219;-81
2024/01/03 01:44:55;;;;;;;3.50;3.20;;;;;;;-142.06;100.00;64312.41;5051337;28;20247;-79
2024/01/03 01:47:22;;;;;;;3.93;3.27;;;;;;;-142.06;100.00;64312.41;5039931;28;20230;-79
2024/01/03 01:49:48;;;;;;;3.40;3.00;;;;;;;-142.06;100.00;64312.41;5054486;28;20190;-79
2024/01/03 01:52:15;;;;;;;3.77;3.37;;;;;;;-142.06;100.00;64312.41;5052080;28;20197;-79
2024/01/03 01:54:42;;;;;;;3.30;3.00;;;;;;;-142.06;100.00;64312.41;5034269;28;20217;-78
2024/01/03 01:57:10;;;;;;;4.33;3.43;;;;;;;-142.06;100.00;64312.41;5052479;28;20654;-80
2024/01/03 01:59:37;;;;;;;3.30;3.00;;;;;;;-142.06;100.00;64312.41;5035432;28;20224;-81
2024/01/03 02:02:04;;;;;;;3.10;2.80;;;;;;;-142.06;100.00;64312.41;5052111;28;20194;-79
2024/01/03 02:04:34;;;;;;;3.30;3.00;;;;;;;-142.06;100.00;64312.41;5051827;28;20189;-81
2024/01/03 02:07:02;;;;;;;3.23;2.93;;;;;;;-142.06;100.00;64312.41;5048441;28;20205;-80
2024/01/03 02:09:29;;;;;;;2.90;2.60;;;;;;;-142.06;100.00;64312.41;5047002;28;20196;-81
2024/01/03 02:11:56;;;;;;;3.10;2.70;;;;;;;-142.06;100.00;64312.41;5048518;28;20685;-78
2024/01/03 02:14:23;;;;;;;3.07;2.47;;;;;;;-142.06;100.00;64312.41;5025729;28;20693;-80
2024/01/03 02:16:49;;;;;;;3.00;2.70;;;;;;;-142.06;100.00;64312.41;5039195;28;20208;-80
2024/01/03 02:19:16;;;;;;;2.40;2.20;;;;;;;-142.06;100.00;64312.41;5051975;28;20212;-79
2024/01/03 02:21:44;;;;;;;3.33;2.23;;;;;;;-142.06;100.00;64312.41;5054034;28;20333;-78
2024/01/03 02:24:10;;;;;;;2.30;2.10;;;;;;;-142.06;100.00;64312.41;5046793;28;20292;-78
2024/01/03 02:26:37;;;;;;;2.80;2.27;;;;;;;-142.06;100.00;64312.41;5045156;28;20191;-79
2024/01/03 02:29:04;;;;;;;2.63;2.20;;;;;;;-142.06;100.00;64312.41;5054417;28;20197;-79
2024/01/03 02:31:31;;;;;;;4.37;2.50;;;;;;;-142.06;100.00;64312.41;5034900;28;20191;-78
2024/01/03 02:33:58;;;;;;;2.40;2.10;;;;;;;-142.06;100.00;64312.41;5058334;28;20232;-80
2024/01/03 02:36:25;;;;;;;2.73;2.07;;;;;;;-142.06;100.00;64312.41;5035178;28;20201;-80
2024/01/03 02:38:53;;;;;;;2.43;1.80;;;;;;;-142.06;100.00;64312.41;5054688;28;20186;-78
2024/01/03 02:41:20;;;;;;;2.00;1.73;;;;;;;-142.06;100.00;64312.41;5035001;28;20205;-81
2024/01/03 02:43:47;;;;;;;1.70;1.50;;;;;;;-142.06;100.00;64312.41;5058362;28;20194;-80
2024/01/03 02:46:18;;;;;;;1.73;1.50;;;;;;;-142.06;100.00;64312.41;5054978;28;20243;-81
2024/01/03 02:48:44;;;;;;;1.30;1.20;;;;;;;-142.06;100.00;64312.41;5066769;28;20216;-80
2024/01/03 02:51:21;;;;;;;1.70;1.30;;;;;;;-142.06;100.00;64312.41;5052452;28;20193;-80
2024/01/03 02:53:49;;;;;;;1.57;1.30;;;;;;;-142.06;100.00;64312.41;5065218;28;20216;-80
2024/01/03 02:56:16;;;;;;;1.50;1.13;;;;;;;-142.06;100.00;64312.41;5069337;28;20282;-79
2024/01/03 02:58:43;;;;;;;1.87;1.10;;;;;;;-142.06;100.00;64312.41;5030014;28;20209;-79
2024/01/03 03:01:11;;;;;;;1.37;1.07;;;;;;;-142.06;100.00;64312.41;5058482;28;20213;-80
2024/01/03 03:03:37;;;;;;;1.10;1.00;;;;;;;-142.06;100.00;64312.41;5046015;28;20662;-79
2024/01/03 03:06:05;;;;;;;1.30;1.10;;;;;;;-142.06;100.00;64312.41;5045609;28;20673;-79
2024/01/03 03:08:32;;;;;;;1.83;1.20;;;;;;;-142.06;100.00;64312.41;5052177;28;20678;-79
2024/01/03 03:10:59;;;;;;;1.33;1.03;;;;;;;-142.06;100.00;64312.41;5053017;28;20272;-80
2024/01/03 03:13:27;;;;;;;1.50;1.00;;;;;;;-142.06;100.00;64312.41;5058901;28;20201;-80
2024/01/03 03:15:54;;;;;;;1.17;1.00;;;;;;;-142.06;100.00;64312.41;5055787;28;20200;-81
2024/01/03 03:18:20;;;;;;;1.17;1.07;;;;;;;-142.06;100.00;64312.41;5011072;28;20247;-79
2024/01/03 03:20:47;;;;;;;1.40;1.07;;;;;;;-142.06;100.00;64312.41;5054702;28;20203;-79
2024/01/03 03:23:14;;;;;;;1.63;1.10;;;;;;;-142.06;100.00;64312.41;5050263;28;20271;-78
2024/01/03 03:25:41;;;;;;;1.37;1.00;;;;;;;-142.06;100.00;64312.41;5054695;28;20199;-77
2024/01/03 03:28:08;;;;;;;0.87;0.87;;;;;;;-142.06;100.00;64312.41;5059812;28;20216;-78
2024/01/03 03:30:36;;;;;;;0.80;0.80;;;;;;;-142.06;100.00;64312.41;5050515;28;20194;-78
2024/01/03 03:33:03;;;;;;;0.80;0.70;;;;;;;-142.06;100.00;64312.41;5050220;28;20202;-80
2024/01/03 03:35:30;;;;;;;0.70;0.70;;;;;;;-142.06;100.00;64312.41;5055649;28;20305;-79
2024/01/03 03:37:57;;;;;;;0.47;0.47;;;;;;;-142.06;100.00;64312.41;5032296;28;20299;-80
2024/01/03 03:40:24;;;;;;;0.53;0.50;;;;;;;-142.06;100.00;64312.41;5033223;28;20201;-80
2024/01/03 03:42:52;;;;;;;0.60;0.40;;;;;;;-142.06;100.00;64312.41;5033992;28;20190;-78
2024/01/03 03:45:18;;;;;;;0.63;0.30;;;;;;;-142.06;100.00;64312.41;5054522;28;20205;-78
2024/01/03 03:47:47;;;;;;;0.40;0.30;;;;;;;-142.06;100.00;64312.41;5059450;28;20233;-79
2024/01/03 03:50:14;;;;;;;0.20;0.20;;;;;;;-142.06;100.00;64312.41;5047658;28;20247;-79
2024/01/03 03:52:41;;;;;;;0.20;0.20;;;;;;;-142.06;100.00;64312.41;5033810;28;20225;-79
2024/01/03 03:55:08;;;;;;;0.37;0.27;;;;;;;-142.06;100.00;64312.41;5049885;28;20240;-80
2024/01/03 03:57:35;;;;;;;0.20;0.20;;;;;;;-142.06;100.00;64312.41;5053632;28;20198;-79
2024/01/03 04:00:05;;;;;;;0.20;0.20;;;;;;;-142.06;100.00;64312.41;5051543;28;20255;-79
2024/01/03 04:02:40;;;;;;;0.60;0.27;;;;;;;-142.06;100.00;64312.41;5035742;28;20219;-78
2024/01/03 04:05:07;;;;;;;0.30;0.30;;;;;;;-142.06;100.00;64312.41;5033592;28;20209;-78
2024/01/03 04:07:34;;;;;;;0.20;0.20;;;;;;;-142.06;100.00;64312.41;5039247;28;20291;-78
2024/01/03 04:10:01;;;;;;;0.23;0.20;;;;;;;-142.06;100.00;64312.41;5022912;28;20289;-78
2024/01/03 04:12:28;;;;;;;0.20;0.20;;;;;;;-142.06;100.00;64312.41;5049966;28;20201;-78
2024/01/03 04:14:54;;;;;;;0.20;0.20;;;;;;;-142.06;100.00;64312.41;5046254;28;20214;-78
2024/01/03 04:17:21;;;;;;;0.47;0.37;;;;;;;-142.06;100.00;64312.41;5027822;28;20200;-79
2024/01/03 04:19:48;;;;;;;0.30;0.30;;;;;;;-142.06;100.00;64312.41;5037837;28;20198;-80
2024/01/03 04:22:15;;;;;;;0.30;0.30;;;;;;;-142.06;100.00;64312.41;5044021;28;20292;-80
2024/01/03 04:24:42;;;;;;;0.50;0.30;;;;;;;-142.06;100.00;64312.41;5050213;28;20189;-79
2024/01/03 04:27:09;;;;;;;0.40;0.40;;;;;;;-142.06;100.00;64312.41;5049828;28;20198;-79
2024/01/03 04:29:36;;;;;;;1.17;0.40;;;;;;;-142.06;100.00;64312.41;5018186;28;20204;-79
2024/01/03 04:32:06;;;;;;;0.60;0.60;;;;;;;-142.06;100.00;64312.41;5019259;28;20658;-80
2024/01/03 04:34:33;;;;;;;0.37;0.30;;;;;;;-142.06;100.00;64312.41;5054960;28;20283;-80
2024/01/03 04:37:00;;;;;;;0.60;0.40;;;;;;;-142.06;100.00;64312.41;5055359;28;20215;-79
2024/01/03 04:39:27;;;;;;;0.73;0.50;;;;;;;-142.06;100.00;64312.41;5054759;28;20193;-80
2024/01/03 04:41:53;;;;;;;0.47;0.40;;;;;;;-142.06;100.00;64312.41;5054448;28;20197;-78
2024/01/03 04:44:20;;;;;;;1.07;0.50;;;;;;;-142.06;100.00;64312.41;5049134;28;20233;-79
2024/01/03 04:46:50;;;;;;;0.70;0.50;;;;;;;-142.06;100.00;64312.41;5054657;28;20237;-79
2024/01/03 04:49:17;;;;;;;0.53;0.40;;;;;;;-142.06;100.00;64312.41;5052274;28;20206;-79
2024/01/03 04:51:43;;;;;;;0.40;0.40;;;;;;;-142.06;100.00;64312.41;5037173;28;20673;-80
2024/01/03 04:54:10;;;;;;;0.40;0.40;;;;;;;-142.06;100.00;64312.41;5054241;28;20217;-77
2024/01/03 04:56:37;;;;;;;0.40;0.40;;;;;;;-142.06;100.00;64312.41;5052934;28;20284;-77
2024/01/03 04:59:04;;;;;;;0.60;0.50;;;;;;;-142.06;100.00;64312.41;5054474;28;20190;-79
2024/01/03 05:01:31;;;;;;;0.73;0.50;;;;;;;-142.06;100.00;64312.41;5034988;28;20208;-79
2024/01/03 05:03:58;;;;;;;0.50;0.30;;;;;;;-142.06;100.00;64312.41;5050628;28;20211;-78
2024/01/03 05:06:25;;;;;;;1.30;0.23;;;;;;;-142.06;100.00;64312.41;5049934;28;20217;-78
2024/01/03 05:08:51;;;;;;;1.20;0.40;;;;;;;-142.06;100.00;64312.41;5033414;28;20210;-81
2024/01/03 05:11:18;;;;;;;0.30;0.30;;;;;;;-142.06;100.00;64312.41;5054244;28;20201;-79
2024/01/03 05:13:45;;;;;;;0.70;0.27;;;;;;;-142.06;100.00;64312.41;5050290;28;20244;-79
2024/01/03 05:16:12;;;;;;;1.23;0.30;;;;;;;-142.06;100.00;64312.41;5051367;28;20209;-79
2024/01/03 05:18:39;;;;;;;0.40;0.23;;;;;;;-142.06;100.00;64312.41;5054243;28;20201;-77
2024/01/03 05:21:06;;;;;;;0.47;0.30;;;;;;;-142.06;100.00;64312.41;5052759;28;20667;-79
2024/01/03 05:23:33;;;;;;;0.30;0.30;;;;;;;-142.06;100.00;64312.41;5033687;28;20197;-79
2024/01/03 05:26:00;;;;;;;1.13;0.13;;;;;;;-142.06;100.00;64312.41;5054252;28;20203;-80
2024/01/03 05:28:27;;;;;;;0.30;0.20;;;;;;;-142.06;100.00;64312.41;5052759;28;20307;-79
2024/01/03 05:30:54;;;;;;;1.13;0.20;;;;;;;-142.06;100.00;64312.41;5053747;28;20567;-80
2024/01/03 05:33:21;;;;;;;1.17;0.20;;;;;;;-142.06;100.00;64312.41;5056531;28;20264;-78
2024/01/03 05:35:48;;;;;;;0.33;0.27;;;;;;;-142.06;100.00;64312.41;5051585;28;20239;-79
2024/01/03 05:38:15;;;;;;;0.30;0.20;;;;;;;-142.06;100.00;64312.41;5035926;28;20205;-80
2024/01/03 05:40:42;;;;;;;0.60;0.30;;;;;;;-142.06;100.00;64312.41;5055089;28;20205;-80
2024/01/03 05:43:11;;;;;;;0.57;0.20;;;;;;;-142.06;100.00;64312.41;5054270;28;20212;-79
2024/01/03 05:45:37;;;;;;;0.50;0.27;;;;;;;-142.06;100.00;64312.41;5052107;28;20198;-78
2024/01/03 05:48:05;;;;;;;0.40;0.13;;;;;;;-142.06;100.00;64312.41;5035683;28;20209;-79
2024/01/03 05:50:32;;;;;;;0.43;0.20;;;;;;;-142.06;100.00;64312.41;5056500;28;20196;-80
2024/01/03 05:52:58;;;;;;;0.23;0.20;;;;;;;-142.06;100.00;64312.41;5051684;28;20194;-80
2024/01/03 05:55:26;;;;;;;0.30;0.20;;;;;;;-142.06;100.00;64312.41;5052234;28;20221;-79
2024/01/03 05:57:53;;;;;;;0.47;0.30;;;;;;;-142.06;100.00;64312.41;5051757;28;20192;-80
2024/01/03 06:00:21;;;;;;;0.43;0.20;;;;;;;-142.06;100.00;64312.41;5050036;28;20198;-79
2024/01/03 06:02:47;;;;;;;0.10;0.10;;;;;;;-142.06;100.00;64312.41;5051189;28;20186;-78
2024/01/03 06:05:16;;;;;;;0.07;0.07;;;;;;;-142.06;100.00;64312.41;5052088;28;20218;-80
2024/01/03 06:07:47;;;;;;;0.10;0.10;;;;;;;-142.06;100.00;64312.41;5047467;28;20196;-79
2024/01/03 06:10:13;;;;;;;0.60;0.20;;;;;;;-142.06;100.00;64312.41;5051048;28;20205;-79
2024/01/03 06:12:40;;;;;;;0.20;0.20;;;;;;;-142.06;100.00;64312.41;5052985;28;20193;-79
2024/01/03 06:15:07;;;;;;;0.10;0.10;;;;;;;-142.06;100.00;64312.41;5051920;28;20217;-79
2024/01/03 06:17:36;;;;;;;0.90;0.10;;;;;;;-142.06;100.00;64312.41;5051396;28;20292;-78
2024/01/03 06:20:03;;;;;;;0.10;0.10;;;;;;;-142.06;100.00;64312.41;5051783;28;20189;-81
2024/01/03 06:22:30;;;;;;;0.10;0.10;;;;;;;-142.06;100.00;64312.41;5053952;28;20205;-80
2024/01/03 06:24:57;;;;;;;0.07;0.07;;;;;;;-142.06;100.00;64312.41;5052680;28;20650;-79
2024/01/03 06:27:24;;;;;;;0.20;0.10;;;;;;;-142.06;100.00;64312.41;5049842;28;20220;-79
2024/01/03 06:29:50;;;;;;;0.40;0.10;;;;;;;-142.06;100.00;64312.41;5052760;28;20205;-79
2024/01/03 06:32:17;;;;;;;0.13;0.13;;;;;;;-142.06;100.00;64312.41;5052458;28;20185;-78
2024/01/03 06:34:44;;;;;;;0.10;0.10;;;;;;;-142.06;100.00;64312.41;5051499;28;20279;-80
2024/01/03 06:37:11;;;;;;;0.73;0.20;;;;;;;-142.06;100.00;64312.41;5045397;28;20323;-79
2024/01/03 06:39:38;;;;;;;0.30;0.20;;;;;;;-142.06;100.00;64312.41;5052427;28;20193;-79
2024/01/03 06:42:05;;;;;;;0.30;0.10;;;;;;;-142.06;100.00;64312.41;5026495;28;20208;-78
2024/01/03 06:44:33;;;;;;;0.10;0.10;;;;;;;-142.06;100.00;64312.41;5051518;28;20230;-79
2024/01/03 06:47:00;;;;;;;0.60;0.20;;;;;;;-142.06;100.00;64312.41;5036025;28;20237;-80
2024/01/03 06:49:27;;;;;;;0.20;0.10;;;;;;;-142.06;100.00;64312.41;5049671;28;20193;-78
2024/01/03 06:51:56;;;;;;;1.20;0.50;;;;;;;-142.06;100.00;64312.41;5036493;28;20202;-78
2024/01/03 06:54:25;;;;;;;1.03;0.60;;;;;;;-142.06;100.00;64312.41;5037315;28;20202;-78
2024/01/03 06:56:52;;;;;;;0.20;0.20;;;;;;;-142.06;100.00;64312.41;5020798;28;20210;-78
2024/01/03 06:59:19;;;;;;;0.20;0.20;;;;;;;-142.06;100.00;64312.41;5037213;28;20206;-78
2024/01/03 07:01:46;;;;;;;0.47;0.10;;;;;;;-142.06;100.00;64312.41;5028651;28;20202;-78
2024/01/03 07:04:13;;;;;;;0.30;0.20;;;;;;;-142.06;100.00;64312.41;5034422;28;20190;-78
2024/01/03 07:06:40;;;;;;;0.30;0.13;;;;;;;-142.06;100.00;64312.41;5049093;28;20205;-79
2024/01/03 07:09:08;;;;;;;1.03;0.10;;;;;;;-142.06;100.00;64312.41;5031415;28;20193;-78
2024/01/03 07:11:35;;;;;;;0.40;0.20;;;;;;;-142.06;100.00;64312.41;5045280;28;20201;-79
2024/01/03 07:14:01;;;;;;;0.93;0.30;;;;;;;-142.06;100.00;64312.41;5050327;28;20205;-78
2024/01/03 07:16:28;;;;;;;0.40;0.10;;;;;;;-142.06;100.00;64312.41;5033231;28;20226;-78
2024/01/03 07:18:55;;;;;;;0.43;0.20;;;;;;;-142.06;100.00;64312.41;5050830;28;20574;-80
2024/01/03 07:21:25;;;;;;;0.20;0.20;;;;;;;-142.06;100.00;64312.41;5050740;28;20223;-79
2024/01/03 07:23:52;;;;;;;0.40;0.20;;;;;;;-142.06;100.00;64312.41;5037387;28;20204;-77
2024/01/03 07:26:19;;;;;;;0.63;0.30;;;;;;;-142.06;100.00;64312.41;5052492;28;20206;-78
2024/01/03 07:28:46;;;;;;;0.30;0.20;;;;;;;-142.06;100.00;64312.41;5049373;28;20265;-78
2024/01/03 07:31:13;;;;;;;0.43;0.20;;;;;;;-142.06;100.00;64312.41;5049616;28;20200;-78
2024/01/03 07:33:41;;;;;;;0.60;0.20;;;;;;;-142.06;100.00;64312.41;5050496;28;20221;-77
2024/01/03 07:36:10;;;;;;;0.37;0.20;;;;;;;-142.06;100.00;64312.41;5048852;28;20217;-78
2024/01/03 07:38:37;;;;;;;0.17;0.10;;;;;;;-142.06;100.00;64312.41;5032824;28;20364;-78
2024/01/03 07:41:04;;;;;;;0.20;0.20;;;;;;;-142.06;100.00;64312.41;5055210;28;20201;-79
2024/01/03 07:43:30;;;;;;;0.77;0.30;;;;;;;-142.06;100.00;64312.41;5048731;28;20231;-80
2024/01/03 07:45:58;;;;;;;1.33;0.40;;;;;;;-142.06;100.00;64312.41;5040377;28;20194;-78
2024/01/03 07:48:24;;;;;;;1.03;0.60;;;;;;;-142.06;100.00;64312.41;5050860;28;20194;-80
2024/01/03 07:50:52;;;;;;;3.53;0.93;;;;;;;-142.06;100.00;64312.41;5043799;28;20198;-77
2024/01/03 07:53:19;;;;;;;0.10;0.10;;;;;;;-142.06;100.00;64312.41;5051643;28;20194;-80
2024/01/03 07:55:45;;;;;;;0.10;0.10;;;;;;;-142.06;100.00;64312.41;5051429;28;20266;-77
2024/01/03 07:58:12;;;;;;;1.93;0.80;;;;;;;-142.06;100.00;64312.41;5050617;28;20204;-77
2024/01/03 08:00:39;;;;;;;1.00;0.40;;;;;;;-142.06;100.00;64312.41;5050814;28;20198;-79
2024/01/03 08:03:06;;;;;;;0.33;0.10;;;;;;;-142.06;100.00;64312.41;5050541;28;20194;-77
2024/01/03 08:05:33;;;;;;;1.30;0.80;;;;;;;-142.06;100.00;64312.41;5054487;28;20189;-77
2024/01/03 08:07:59;;;;;;;0.63;0.30;;;;;;;-142.06;100.00;64312.41;5054196;28;20236;-80
2024/01/03 08:10:26;;;;;;;1.07;0.37;;;;;;;-142.06;100.00;64312.41;5054549;28;20191;-79
2024/01/03 08:12:53;;;;;;;0.20;0.20;;;;;;;-142.06;100.00;64312.41;5055335;28;20190;-79
2024/01/03 08:15:20;;;;;;;0.43;0.20;;;;;;;-142.06;100.00;64312.41;5055351;28;20225;-80
2024/01/03 08:17:47;;;;;;;0.20;0.10;;;;;;;-142.06;100.00;64312.41;5055563;28;20202;-79
2024/01/03 08:20:14;;;;;;;0.60;0.30;;;;;;;-142.06;100.00;64312.41;5049516;28;20197;-79
2024/01/03 08:22:41;;;;;;;0.27;0.20;;;;;;;-142.06;100.00;64312.41;5057077;28;20190;-82
2024/01/03 08:25:10;;;;;;;0.40;0.20;;;;;;;-142.06;100.00;64312.41;5052733;28;20189;-81
2024/01/03 08:27:38;;;;;;;0.30;0.30;;;;;;;-142.06;100.00;64312.41;5052812;28;20207;-79
2024/01/03 08:30:06;;;;;;;0.40;0.20;;;;;;;-142.06;100.00;64312.41;5052596;28;20206;-78
2024/01/03 08:32:36;;;;;;;0.37;0.30;;;;;;;-142.06;100.00;64312.41;5053403;28;20254;-80
2024/01/03 08:35:04;;;;;;;0.50;0.20;;;;;;;-142.06;100.00;64312.41;5052586;28;20242;-81
2024/01/03 08:37:31;;;;;;;0.20;0.20;;;;;;;-142.06;100.00;64312.41;5051235;28;20230;-80
2024/01/03 08:39:58;;;;;;;0.50;0.30;;;;;;;-142.06;100.00;64312.41;5053226;28;20253;-80
2024/01/03 08:42:25;;;;;;;0.20;0.20;;;;;;;-142.06;100.00;64312.41;5054706;28;20242;-80
2024/01/03 08:44:52;;;;;;;0.30;0.20;;;;;;;-142.06;100.00;64312.41;5053858;28;20195;-80
2024/01/03 08:47:19;;;;;;;0.70;0.20;;;;;;;-142.06;100.00;64312.41;5053709;28;20242;-78
2024/01/03 08:49:45;;;;;;;0.53;0.33;;;;;;;-142.06;100.00;64312.41;5053357;28;20195;-78
2024/01/03 08:52:13;;;;;;;0.10;0.10;;;;;;;-142.06;100.00;64312.41;5052035;28;20204;-80
2024/01/03 08:54:40;;;;;;;0.50;0.20;;;;;;;-142.06;100.00;64312.41;5052073;28;20195;-78
2024/01/03 08:57:09;;;;;;;0.30;0.30;;;;;;;-142.06;100.00;64312.41;5045528;28;20211;-79
2024/01/03 08:59:36;;;;;;;0.77;0.20;;;;;;;-142.06;100.00;64312.41;5050401;28;20729;-79
2024/01/03 09:02:04;;;;;;;0.27;0.10;;;;;;;-142.06;100.00;64312.41;5051979;28;20211;-79
2024/01/03 09:04:30;;;;;;;0.50;0.20;;;;;;;-142.06;100.00;64312.41;5031688;28;20208;-78
2024/01/03 09:06:57;;;;;;;0.20;0.17;;;;;;;-142.06;100.00;64312.41;5066987;28;20675;-80
2024/01/03 09:09:24;;;;;;;0.20;0.20;;;;;;;-142.06;100.00;64312.41;5049585;28;20226;-79
2024/01/03 09:11:51;;;;;;;0.57;0.20;;;;;;;-142.06;100.00;64312.41;5051925;28;20195;-78
2024/01/03 09:14:18;;;;;;;0.60;0.20;;;;;;;-142.06;100.00;64312.41;5051145;28;20191;-80
2024/01/03 09:16:45;;;;;;;0.57;0.17;;;;;;;-142.06;100.00;64312.41;5017139;28;20223;-79
2024/01/03 09:19:11;;;;;;;0.50;0.27;;;;;;;-142.06;100.00;64312.41;5033615;28;20260;-79
2024/01/03 09:21:45;;;;;;;0.30;0.20;;;;;;;-142.06;100.00;64312.41;5048868;28;20204;-78
2024/01/03 09:24:13;;;;;;;0.60;0.30;;;;;;;-142.06;100.00;64312.41;5048169;28;20704;-78
2024/01/03 09:26:39;;;;;;;0.60;0.20;;;;;;;-142.06;100.00;64312.41;5047297;28;20242;-79
2024/01/03 09:29:07;;;;;;;0.67;0.20;;;;;;;-142.06;100.00;64312.41;5035251;28;20195;-78
2024/01/03 09:31:40;;;;;;;0.20;0.20;;;;;;;-142.06;100.00;64312.41;5034058;28;20203;-79
2024/01/03 09:34:07;;;;;;;0.30;0.20;;;;;;;-142.06;100.00;64312.41;5051014;28;20212;-78
2024/01/03 09:36:34;;;;;;;0.20;0.20;;;;;;;-142.06;100.00;64312.41;5050800;28;20216;-79
2024/01/03 09:39:01;;;;;;;0.40;0.17;;;;;;;-142.06;100.00;64312.41;5047293;28;20349;-79
2024/01/03 09:41:29;;;;;;;1.20;0.20;;;;;;;-142.06;100.00;64312.41;5012312;28;20193;-79
2024/01/03 09:43:56;;;;;;;0.27;0.20;;;;;;;-142.06;100.00;64312.41;5050053;28;20270;-79
2024/01/03 09:46:23;;;;;;;1.70;0.70;;;;;;;-142.06;100.00;64312.41;5043917;28;20237;-78
2024/01/03 09:48:50;;;;;;;0.20;0.20;;;;;;;-142.06;100.00;64312.41;5034695;28;20350;-79
2024/01/03 09:51:19;;;;;;;0.10;0.10;;;;;;;-142.06;100.00;64312.41;5051295;28;20246;-78
2024/01/03 09:53:52;;;;;;;0.87;0.20;;;;;;;-142.06;100.00;64312.41;5048124;28;20204;-78
2024/01/03 09:56:19;;;;;;;0.60;0.30;;;;;;;-142.06;100.00;64312.41;5046755;28;20232;-78
2024/01/03 09:58:49;;;;;;;0.13;0.13;;;;;;;-142.06;100.00;64312.41;5051093;28;20218;-80
2024/01/03 10:01:16;;;;;;;0.20;0.20;;;;;;;-142.06;100.00;64312.41;5044907;28;20202;-79
2024/01/03 10:03:43;;;;;;;0.33;0.23;;;;;;;-142.06;100.00;64312.41;5051273;28;20221;-79
2024/01/03 10:06:14;;;;;;;0.27;0.17;;;;;;;-142.06;100.00;64312.41;5051511;28;20302;-80
2024/01/03 10:09:03;;;;;;;0.50;0.20;;;;;;;-142.06;100.00;64312.41;5017833;28;20210;-82
2024/01/03 10:11:30;;;;;;;0.70;0.30;;;;;;;-142.06;100.00;64312.41;5034658;28;20198;-80
2024/01/03 10:14:16;;;;;;;1.27;0.90;;;;;;;-142.06;100.00;64312.41;5052015;28;20201;-80
2024/01/03 10:16:44;;;;;;;3.50;2.20;;;;;;;-142.06;100.00;64312.41;5034294;28;20299;-80
2024/01/03 10:19:18;;;;;;;1.27;0.40;;;;;;;-142.06;100.00;64312.41;5034916;28;20661;-79
2024/01/03 10:21:49;;;;;;;1.00;0.40;;;;;;;-142.06;100.00;64312.41;5051510;28;20215;-77
2024/01/03 10:24:17;;;;;;;0.10;0.10;;;;;;;-142.06;100.00;64312.41;5052471;28;20193;-78
2024/01/03 10:26:45;;;;;;;1.20;0.40;;;;;;;-142.06;100.00;64312.41;5051633;28;20213;-80
2024/01/03 10:29:14;;;;;;;1.27;0.50;;;;;;;-142.06;100.00;64312.41;5050328;28;20217;-78
2024/01/03 10:31:41;;;;;;;0.53;0.33;;;;;;;-142.06;100.00;64312.41;5050945;28;20204;-79
2024/01/03 10:34:12;;;;;;;0.83;0.60;;;;;;;-142.06;100.00;64312.41;5035001;28;20313;-78
2024/01/03 10:36:39;;;;;;;0.67;0.30;;;;;;;-142.06;100.00;64312.41;5050805;28;20239;-78
2024/01/03 10:39:07;;;;;;;0.30;0.30;;;;;;;-142.06;100.00;64312.41;5050853;28;20245;-80
2024/01/03 10:41:34;;;;;;;0.40;0.23;;;;;;;-142.06;100.00;64312.41;5049543;28;20235;-78
2024/01/03 10:44:02;;;;;;;0.53;0.30;;;;;;;-142.06;100.00;64312.41;5050497;28;20206;-78
2024/01/03 10:46:29;;;;;;;0.23;0.20;;;;;;;-142.06;100.00;64312.41;5050239;28;20227;-79
2024/01/03 10:48:56;;;;;;;0.67;0.30;;;;;;;-142.06;100.00;64312.41;5052025;28;20256;-79
2024/01/03 10:51:24;;;;;;;0.30;0.20;;;;;;;-142.06;100.00;64312.41;5032442;28;20198;-79
2024/01/03 10:53:58;;;;;;;0.40;0.30;;;;;;;-142.06;100.00;64312.41;5051536;28;20194;-78
2024/01/03 10:56:27;;;;;;;0.30;0.20;;;;;;;-142.06;100.00;64312.41;5052972;28;20213;-80
2024/01/03 10:58:54;;;;;;;0.93;0.20;;;;;;;-142.06;100.00;64312.41;5049277;28;20198;-79
2024/01/03 11:01:31;;;;;;;0.53;0.20;;;;;;;-142.06;100.00;64312.41;5048097;28;20198;-77
2024/01/03 11:04:10;;;;;;;0.30;0.20;;;;;;;-142.06;100.00;64312.41;5049650;28;20663;-85
2024/01/03 11:07:04;;;;;;;0.83;0.20;;;;;;;-142.06;100.00;64312.41;5050718;28;20203;-78
2024/01/03 11:09:31;;;;;;;0.27;0.20;;;;;;;-142.06;100.00;64312.41;5049399;28;20191;-79
2024/01/03 11:12:08;;;;;;;0.40;0.20;;;;;;;-142.06;100.00;64312.41;5050953;28;20205;-78